createdAt,value
2019-02-14T00:00:04.906Z,1029.41
2019-02-14T00:01:56.719Z,1029.44
2019-02-14T00:02:56.604Z,1029.41
2019-02-14T00:04:48.422Z,1029.45
2019-02-14T00:05:48.358Z,1029.49
2019-02-14T00:07:40.237Z,1029.46
2019-02-14T00:08:40.188Z,1029.44
2019-02-14T00:10:32.037Z,1029.45
2019-02-14T00:11:31.865Z,1029.45
2019-02-14T00:13:23.669Z,1029.47
2019-02-14T00:14:23.534Z,1029.46
2019-02-14T00:16:15.313Z,1029.41
2019-02-14T00:17:15.249Z,1029.44
2019-02-14T00:19:07.102Z,1029.45
2019-02-14T00:20:07.032Z,1029.46
2019-02-14T00:21:59.968Z,1029.42
2019-02-14T00:22:59.871Z,1029.43
2019-02-14T00:24:51.677Z,1029.44
2019-02-14T00:25:51.618Z,1029.48
2019-02-14T00:27:44.406Z,1029.48
2019-02-14T00:28:44.337Z,1029.46
2019-02-14T00:30:36.164Z,1029.47
2019-02-14T00:31:36.065Z,1029.46
2019-02-14T00:33:28.857Z,1029.53
2019-02-14T00:34:28.783Z,1029.50
2019-02-14T00:36:20.595Z,1029.58
2019-02-14T00:37:20.531Z,1029.60
2019-02-14T00:39:12.251Z,1029.63
2019-02-14T00:40:12.207Z,1029.59
2019-02-14T00:42:04.935Z,1029.59
2019-02-14T00:43:04.863Z,1029.62
2019-02-14T00:44:57.675Z,1029.54
2019-02-14T00:45:57.750Z,1029.53
2019-02-14T00:47:49.421Z,1029.56
2019-02-14T00:48:49.259Z,1029.54
2019-02-14T00:50:42.086Z,1029.56
2019-02-14T00:51:41.960Z,1029.55
2019-02-14T00:53:34.732Z,1029.56
2019-02-14T00:54:34.677Z,1029.55
2019-02-14T00:56:27.426Z,1029.58
2019-02-14T00:57:27.344Z,1029.61
2019-02-14T00:59:19.258Z,1029.60
2019-02-14T01:00:19.180Z,1029.63
2019-02-14T01:02:10.973Z,1029.62
2019-02-14T01:03:10.886Z,1029.62
2019-02-14T01:05:02.741Z,1029.59
2019-02-14T01:06:02.661Z,1029.62
2019-02-14T01:07:55.477Z,1029.58
2019-02-14T01:08:55.388Z,1029.60
2019-02-14T01:10:48.201Z,1029.59
2019-02-14T01:11:48.082Z,1029.58
2019-02-14T01:13:39.871Z,1029.57
2019-02-14T01:14:39.847Z,1029.61
2019-02-14T01:16:31.852Z,1029.58
2019-02-14T01:17:31.769Z,1029.56
2019-02-14T01:19:23.665Z,1029.58
2019-02-14T01:20:23.550Z,1029.60
2019-02-14T01:22:16.373Z,1029.61
2019-02-14T01:23:16.273Z,1029.60
2019-02-14T01:25:08.330Z,1029.61
2019-02-14T01:26:08.020Z,1029.61
2019-02-14T01:28:00.801Z,1029.52
2019-02-14T01:29:00.711Z,1029.53
2019-02-14T01:30:53.502Z,1029.54
2019-02-14T01:31:53.401Z,1029.56
2019-02-14T01:33:45.294Z,1029.52
2019-02-14T01:34:45.237Z,1029.50
2019-02-14T01:36:38.032Z,1029.48
2019-02-14T01:37:37.904Z,1029.49
2019-02-14T01:39:30.676Z,1029.47
2019-02-14T01:40:30.779Z,1029.43
2019-02-14T01:42:23.397Z,1029.43
2019-02-14T01:43:23.413Z,1029.40
2019-02-14T01:45:16.093Z,1029.44
2019-02-14T01:46:16.024Z,1029.45
2019-02-14T01:48:08.877Z,1029.45
2019-02-14T01:49:08.760Z,1029.39
2019-02-14T01:51:00.658Z,1029.41
2019-02-14T01:52:00.674Z,1029.40
2019-02-14T01:53:52.861Z,1029.40
2019-02-14T01:54:52.750Z,1029.41
2019-02-14T01:56:59.549Z,1029.33
2019-02-14T01:57:59.462Z,1029.35
2019-02-14T01:59:51.222Z,1029.38
2019-02-14T02:00:51.162Z,1029.31
2019-02-14T02:02:44.119Z,1029.38
2019-02-14T02:03:43.861Z,1029.38
2019-02-14T02:05:36.653Z,1029.38
2019-02-14T02:06:36.604Z,1029.37
2019-02-14T02:08:29.348Z,1029.44
2019-02-14T02:09:29.282Z,1029.47
2019-02-14T02:11:22.099Z,1029.50
2019-02-14T02:12:22.026Z,1029.49
2019-02-14T02:14:14.426Z,1029.52
2019-02-14T02:15:13.889Z,1029.49
2019-02-14T02:17:06.634Z,1029.48
2019-02-14T02:18:06.597Z,1029.47
2019-02-14T02:19:59.432Z,1029.49
2019-02-14T02:20:59.280Z,1029.50
2019-02-14T02:22:51.136Z,1029.47
2019-02-14T02:23:51.041Z,1029.46
2019-02-14T02:25:42.926Z,1029.50
2019-02-14T02:26:42.858Z,1029.47
2019-02-14T02:28:35.740Z,1029.51
2019-02-14T02:29:35.545Z,1029.52
2019-02-14T02:31:27.316Z,1029.53
2019-02-14T02:32:27.232Z,1029.54
2019-02-14T02:34:19.976Z,1029.54
2019-02-14T02:35:19.898Z,1029.54
2019-02-14T02:37:12.819Z,1029.52
2019-02-14T02:38:12.701Z,1029.53
2019-02-14T02:40:04.512Z,1029.45
2019-02-14T02:41:04.471Z,1029.48
2019-02-14T02:42:57.241Z,1029.49
2019-02-14T02:43:57.218Z,1029.52
2019-02-14T02:45:48.911Z,1029.52
2019-02-14T02:46:48.866Z,1029.55
2019-02-14T02:48:41.205Z,1029.56
2019-02-14T02:49:40.799Z,1029.55
2019-02-14T02:51:32.655Z,1029.55
2019-02-14T02:52:32.552Z,1029.65
2019-02-14T02:54:25.354Z,1029.62
2019-02-14T02:55:25.224Z,1029.61
2019-02-14T02:57:17.974Z,1029.63
2019-02-14T02:58:17.885Z,1029.66
2019-02-14T03:00:09.738Z,1029.59
2019-02-14T03:01:09.628Z,1029.65
2019-02-14T03:03:01.434Z,1029.71
2019-02-14T03:04:01.325Z,1029.75
2019-02-14T03:05:54.135Z,1029.77
2019-02-14T03:06:54.069Z,1029.77
2019-02-14T03:08:45.866Z,1029.81
2019-02-14T03:09:45.778Z,1029.83
2019-02-14T03:11:37.670Z,1029.88
2019-02-14T03:12:37.595Z,1029.88
2019-02-14T03:14:30.376Z,1029.91
2019-02-14T03:15:30.294Z,1029.90
2019-02-14T03:17:23.067Z,1029.93
2019-02-14T03:18:22.988Z,1029.95
2019-02-14T03:20:15.788Z,1029.91
2019-02-14T03:21:15.714Z,1029.95
2019-02-14T03:23:08.640Z,1029.91
2019-02-14T03:24:08.468Z,1029.90
2019-02-14T03:26:01.285Z,1029.97
2019-02-14T03:27:01.229Z,1029.99
2019-02-14T03:28:53.991Z,1029.98
2019-02-14T03:29:53.902Z,1030.00
2019-02-14T03:31:46.782Z,1029.99
2019-02-14T03:32:46.641Z,1029.99
2019-02-14T03:34:39.415Z,1029.97
2019-02-14T03:35:39.328Z,1029.98
2019-02-14T03:37:31.226Z,1029.93
2019-02-14T03:38:31.197Z,1029.92
2019-02-14T03:40:23.131Z,1029.93
2019-02-14T03:41:23.025Z,1029.96
2019-02-14T03:43:15.024Z,1029.95
2019-02-14T03:44:14.785Z,1029.97
2019-02-14T03:46:07.581Z,1029.90
2019-02-14T03:47:07.559Z,1029.89
2019-02-14T03:49:00.331Z,1029.98
2019-02-14T03:50:00.282Z,1029.99
2019-02-14T03:51:52.985Z,1029.98
2019-02-14T03:52:52.909Z,1029.93
2019-02-14T03:54:45.688Z,1029.94
2019-02-14T03:55:45.633Z,1029.88
2019-02-14T03:57:37.425Z,1029.98
2019-02-14T03:58:37.353Z,1030.00
2019-02-14T04:00:30.192Z,1029.97
2019-02-14T04:01:30.122Z,1030.01
2019-02-14T04:03:21.999Z,1030.00
2019-02-14T04:04:21.962Z,1030.02
2019-02-14T04:06:13.769Z,1030.01
2019-02-14T04:07:13.678Z,1029.99
2019-02-14T04:09:06.688Z,1030.09
2019-02-14T04:10:06.611Z,1030.09
2019-02-14T04:11:58.476Z,1030.09
2019-02-14T04:12:58.387Z,1030.14
2019-02-14T04:14:51.181Z,1030.11
2019-02-14T04:15:51.056Z,1030.13
2019-02-14T04:17:43.883Z,1030.19
2019-02-14T04:18:43.846Z,1030.19
2019-02-14T04:20:35.700Z,1030.15
2019-02-14T04:21:35.861Z,1030.12
2019-02-14T04:23:27.570Z,1030.18
2019-02-14T04:24:27.498Z,1030.18
2019-02-14T04:26:19.503Z,1030.22
2019-02-14T04:27:19.415Z,1030.17
2019-02-14T04:29:11.403Z,1030.14
2019-02-14T04:30:11.299Z,1030.13
2019-02-14T04:32:03.258Z,1030.13
2019-02-14T04:33:03.189Z,1030.14
2019-02-14T04:34:55.002Z,1030.20
2019-02-14T04:35:54.988Z,1030.22
2019-02-14T04:37:47.778Z,1030.21
2019-02-14T04:38:47.689Z,1030.20
2019-02-14T04:40:39.481Z,1030.13
2019-02-14T04:41:39.413Z,1030.10
2019-02-14T04:43:31.281Z,1030.11
2019-02-14T04:44:31.167Z,1030.15
2019-02-14T04:46:24.185Z,1030.13
2019-02-14T04:47:24.008Z,1030.12
2019-02-14T04:49:16.805Z,1030.12
2019-02-14T04:50:16.716Z,1030.10
2019-02-14T04:52:09.596Z,1030.09
2019-02-14T04:53:09.467Z,1030.08
2019-02-14T04:55:01.196Z,1029.96
2019-02-14T04:56:01.115Z,1029.98
2019-02-14T04:57:53.910Z,1030.12
2019-02-14T04:58:53.833Z,1030.11
2019-02-14T05:00:45.795Z,1030.16
2019-02-14T05:01:45.645Z,1030.16
2019-02-14T05:03:38.502Z,1030.24
2019-02-14T05:04:38.350Z,1030.24
2019-02-14T05:06:30.515Z,1030.33
2019-02-14T05:07:30.481Z,1030.29
2019-02-14T05:09:23.175Z,1030.34
2019-02-14T05:10:23.099Z,1030.37
2019-02-14T05:12:14.994Z,1030.43
2019-02-14T05:13:14.935Z,1030.44
2019-02-14T05:15:07.747Z,1030.40
2019-02-14T05:16:07.761Z,1030.39
2019-02-14T05:18:00.471Z,1030.45
2019-02-14T05:19:00.381Z,1030.47
2019-02-14T05:20:53.313Z,1030.46
2019-02-14T05:21:53.165Z,1030.49
2019-02-14T05:23:46.027Z,1030.44
2019-02-14T05:24:45.987Z,1030.44
2019-02-14T05:26:38.723Z,1030.38
2019-02-14T05:27:38.690Z,1030.32
2019-02-14T05:29:30.603Z,1030.39
2019-02-14T05:30:30.545Z,1030.37
2019-02-14T05:32:22.328Z,1030.33
2019-02-14T05:33:22.263Z,1030.31
2019-02-14T05:35:14.190Z,1030.33
2019-02-14T05:36:14.101Z,1030.34
2019-02-14T05:38:07.063Z,1030.31
2019-02-14T05:39:06.994Z,1030.35
2019-02-14T05:40:59.869Z,1030.38
2019-02-14T05:41:59.773Z,1030.32
2019-02-14T05:43:51.626Z,1030.36
2019-02-14T05:44:51.518Z,1030.37
2019-02-14T05:46:44.418Z,1030.37
2019-02-14T05:47:44.260Z,1030.36
2019-02-14T05:49:36.968Z,1030.37
2019-02-14T05:50:36.909Z,1030.33
2019-02-14T05:52:29.874Z,1030.31
2019-02-14T05:53:29.657Z,1030.29
2019-02-14T05:55:22.476Z,1030.30
2019-02-14T05:56:22.363Z,1030.30
2019-02-14T05:58:14.145Z,1030.29
2019-02-14T05:59:14.101Z,1030.23
2019-02-14T06:01:06.968Z,1030.23
2019-02-14T06:02:06.860Z,1030.18
2019-02-14T06:03:59.602Z,1030.20
2019-02-14T06:04:59.545Z,1030.25
2019-02-14T06:06:52.398Z,1030.35
2019-02-14T06:07:52.276Z,1030.42
2019-02-14T06:09:45.043Z,1030.44
2019-02-14T06:10:45.102Z,1030.39
2019-02-14T06:12:36.828Z,1030.47
2019-02-14T06:13:36.734Z,1030.54
2019-02-14T06:15:29.538Z,1030.51
2019-02-14T06:16:29.499Z,1030.50
2019-02-14T06:18:22.271Z,1030.48
2019-02-14T06:19:22.162Z,1030.45
2019-02-14T06:21:14.973Z,1030.52
2019-02-14T06:22:14.880Z,1030.50
2019-02-14T06:24:06.769Z,1030.57
2019-02-14T06:25:06.687Z,1030.60
2019-02-14T06:26:59.482Z,1030.68
2019-02-14T06:27:59.435Z,1030.62
2019-02-14T06:29:51.276Z,1030.68
2019-02-14T06:30:51.210Z,1030.71
2019-02-14T06:32:44.034Z,1030.74
2019-02-14T06:33:44.388Z,1030.77
2019-02-14T06:35:37.100Z,1030.73
2019-02-14T06:36:36.695Z,1030.73
2019-02-14T06:38:29.134Z,1030.72
2019-02-14T06:39:29.060Z,1030.70
2019-02-14T06:41:21.853Z,1030.64
2019-02-14T06:42:21.762Z,1030.62
2019-02-14T06:44:13.706Z,1030.64
2019-02-14T06:45:13.635Z,1030.67
2019-02-14T06:47:06.447Z,1030.68
2019-02-14T06:48:06.338Z,1030.66
2019-02-14T06:49:59.145Z,1030.63
2019-02-14T06:50:59.023Z,1030.64
2019-02-14T06:52:51.820Z,1030.59
2019-02-14T06:53:51.710Z,1030.57
2019-02-14T06:55:44.483Z,1030.65
2019-02-14T06:56:44.406Z,1030.69
2019-02-14T06:58:37.170Z,1030.78
2019-02-14T06:59:37.088Z,1030.87
2019-02-14T07:01:29.859Z,1030.93
2019-02-14T07:02:29.775Z,1030.99
2019-02-14T07:04:22.546Z,1031.07
2019-02-14T07:05:23.222Z,1031.02
2019-02-14T07:07:18.630Z,1031.02
2019-02-14T07:08:15.155Z,1031.06
2019-02-14T07:10:07.094Z,1031.11
2019-02-14T07:11:07.022Z,1031.18
2019-02-14T07:12:59.843Z,1031.25
2019-02-14T07:13:59.729Z,1031.24
2019-02-14T07:15:52.537Z,1031.26
2019-02-14T07:16:52.423Z,1031.26
2019-02-14T07:18:45.226Z,1031.27
2019-02-14T07:19:45.137Z,1031.27
2019-02-14T07:21:37.899Z,1031.24
2019-02-14T07:22:37.820Z,1031.22
2019-02-14T07:24:29.621Z,1031.21
2019-02-14T07:25:29.543Z,1031.22
2019-02-14T07:27:22.339Z,1031.18
2019-02-14T07:28:22.256Z,1031.24
2019-02-14T07:30:14.170Z,1031.25
2019-02-14T07:31:14.153Z,1031.26
2019-02-14T07:33:06.004Z,1031.28
2019-02-14T07:34:05.927Z,1031.34
2019-02-14T07:35:57.864Z,1031.35
2019-02-14T07:36:57.788Z,1031.31
2019-02-14T07:38:50.554Z,1031.27
2019-02-14T07:39:50.467Z,1031.21
2019-02-14T07:41:43.288Z,1031.15
2019-02-14T07:42:43.167Z,1031.15
2019-02-14T07:44:34.992Z,1031.15
2019-02-14T07:45:34.930Z,1031.18
2019-02-14T07:47:27.696Z,1031.24
2019-02-14T07:48:27.618Z,1031.23
2019-02-14T07:50:20.417Z,1031.29
2019-02-14T07:51:20.351Z,1031.26
2019-02-14T07:53:13.128Z,1031.27
2019-02-14T07:54:13.053Z,1031.28
2019-02-14T07:56:05.812Z,1031.28
2019-02-14T07:57:05.740Z,1031.26
2019-02-14T07:58:58.518Z,1031.30
2019-02-14T07:59:58.434Z,1031.30
2019-02-14T08:01:51.200Z,1031.26
2019-02-14T08:02:51.122Z,1031.24
2019-02-14T08:04:43.886Z,1031.19
2019-02-14T08:05:43.826Z,1031.16
2019-02-14T08:07:36.613Z,1031.17
2019-02-14T08:08:36.513Z,1031.11
2019-02-14T08:10:28.398Z,1031.14
2019-02-14T08:11:28.323Z,1031.16
2019-02-14T08:13:21.101Z,1031.20
2019-02-14T08:14:21.023Z,1031.26
2019-02-14T08:16:12.943Z,1031.16
2019-02-14T08:17:12.876Z,1031.14
2019-02-14T08:19:04.700Z,1031.07
2019-02-14T08:20:04.618Z,1031.06
2019-02-14T08:21:57.466Z,1031.03
2019-02-14T08:22:57.306Z,1031.04
2019-02-14T08:24:50.079Z,1031.01
2019-02-14T08:25:49.997Z,1030.96
2019-02-14T08:27:42.812Z,1030.98
2019-02-14T08:28:42.705Z,1030.94
2019-02-14T08:30:35.453Z,1030.96
2019-02-14T08:31:35.410Z,1030.96
2019-02-14T08:33:27.189Z,1030.92
2019-02-14T08:34:27.110Z,1030.95
2019-02-14T08:36:19.107Z,1030.94
2019-02-14T08:37:19.042Z,1030.94
2019-02-14T08:39:11.820Z,1030.93
2019-02-14T08:40:11.733Z,1030.94
2019-02-14T08:42:03.506Z,1030.95
2019-02-14T08:43:03.453Z,1030.97
2019-02-14T08:44:55.181Z,1030.92
2019-02-14T08:45:55.091Z,1030.90
2019-02-14T08:47:46.896Z,1030.89
2019-02-14T08:48:46.804Z,1030.92
2019-02-14T08:50:38.559Z,1030.92
2019-02-14T08:51:38.540Z,1030.90
2019-02-14T08:53:30.290Z,1030.84
2019-02-14T08:54:30.208Z,1030.94
2019-02-14T08:56:21.997Z,1030.90
2019-02-14T08:57:21.918Z,1030.91
2019-02-14T08:59:13.801Z,1030.87
2019-02-14T09:00:13.822Z,1030.93
2019-02-14T09:03:44.850Z,1030.94
2019-02-14T09:04:44.750Z,1030.95
2019-02-14T09:06:36.568Z,1031.03
2019-02-14T09:07:36.502Z,1031.03
2019-02-14T09:09:28.272Z,1031.07
2019-02-14T09:10:28.182Z,1031.07
2019-02-14T09:12:20.988Z,1031.06
2019-02-14T09:13:20.884Z,1031.07
2019-02-14T09:15:12.980Z,1031.08
2019-02-14T09:16:12.727Z,1031.02
2019-02-14T09:18:04.570Z,1031.00
2019-02-14T09:19:05.089Z,1030.99
2019-02-14T09:20:56.194Z,1031.02
2019-02-14T09:21:56.157Z,1030.98
2019-02-14T09:23:48.043Z,1031.05
2019-02-14T09:24:47.908Z,1031.03
2019-02-14T09:26:39.839Z,1031.09
2019-02-14T09:27:39.778Z,1031.12
2019-02-14T09:29:31.623Z,1031.15
2019-02-14T09:30:31.683Z,1031.14
2019-02-14T09:32:23.314Z,1031.12
2019-02-14T09:33:23.227Z,1031.14
2019-02-14T09:35:15.049Z,1031.16
2019-02-14T09:36:14.980Z,1031.17
2019-02-14T09:38:06.799Z,1031.14
2019-02-14T09:39:06.724Z,1031.18
2019-02-14T09:40:58.539Z,1031.21
2019-02-14T09:41:58.497Z,1031.21
2019-02-14T09:43:50.842Z,1031.30
2019-02-14T09:44:50.749Z,1031.32
2019-02-14T09:46:42.540Z,1031.47
2019-02-14T09:47:42.432Z,1031.49
2019-02-14T09:49:34.219Z,1031.52
2019-02-14T09:50:34.164Z,1031.48
2019-02-14T09:52:25.943Z,1031.43
2019-02-14T09:53:25.855Z,1031.41
2019-02-14T09:55:17.717Z,1031.28
2019-02-14T09:56:17.674Z,1031.24
2019-02-14T09:58:09.481Z,1031.21
2019-02-14T09:59:09.393Z,1031.18
2019-02-14T10:01:01.221Z,1031.21
2019-02-14T10:02:01.172Z,1031.23
2019-02-14T10:03:52.937Z,1031.22
2019-02-14T10:04:52.841Z,1031.24
2019-02-14T10:06:44.626Z,1031.18
2019-02-14T10:07:44.561Z,1031.16
2019-02-14T10:09:36.548Z,1031.09
2019-02-14T10:10:36.709Z,1031.06
2019-02-14T10:12:28.174Z,1031.02
2019-02-14T10:13:28.089Z,1030.98
2019-02-14T10:15:19.852Z,1031.01
2019-02-14T10:16:19.774Z,1031.06
2019-02-14T10:18:11.552Z,1031.07
2019-02-14T10:19:11.488Z,1031.02
2019-02-14T10:21:03.240Z,1031.05
2019-02-14T10:22:03.175Z,1031.03
2019-02-14T10:23:55.035Z,1031.02
2019-02-14T10:24:54.873Z,1031.02
2019-02-14T10:26:46.789Z,1031.05
2019-02-14T10:27:46.724Z,1031.13
2019-02-14T10:29:39.503Z,1031.15
2019-02-14T10:30:40.239Z,1031.15
2019-02-14T10:32:32.205Z,1031.13
2019-02-14T10:33:32.119Z,1031.20
2019-02-14T10:35:23.896Z,1031.18
2019-02-14T10:36:23.841Z,1031.18
2019-02-14T10:38:22.042Z,1031.22
2019-02-14T10:39:15.702Z,1031.18
2019-02-14T10:41:07.465Z,1031.16
2019-02-14T10:42:07.399Z,1031.14
2019-02-14T10:43:59.535Z,1031.16
2019-02-14T10:44:59.455Z,1031.16
2019-02-14T10:46:51.212Z,1031.15
2019-02-14T10:47:51.153Z,1031.07
2019-02-14T10:49:42.939Z,1031.00
2019-02-14T10:50:42.857Z,1030.98
2019-02-14T10:52:34.794Z,1030.93
2019-02-14T10:53:34.738Z,1030.95
2019-02-14T10:55:26.522Z,1030.98
2019-02-14T10:56:26.464Z,1030.92
2019-02-14T10:58:18.353Z,1030.93
2019-02-14T10:59:18.272Z,1030.91
2019-02-14T11:01:10.071Z,1030.92
2019-02-14T11:02:09.962Z,1030.96
2019-02-14T11:04:01.726Z,1030.96
2019-02-14T11:05:01.660Z,1030.94
2019-02-14T11:06:53.663Z,1030.92
2019-02-14T11:07:53.481Z,1030.84
2019-02-14T11:09:45.319Z,1030.92
2019-02-14T11:10:45.275Z,1030.84
2019-02-14T11:12:37.097Z,1030.84
2019-02-14T11:13:37.031Z,1030.87
2019-02-14T11:15:28.888Z,1030.90
2019-02-14T11:16:28.800Z,1030.85
2019-02-14T11:18:20.578Z,1030.87
2019-02-14T11:19:20.490Z,1030.89
2019-02-14T11:21:12.311Z,1030.84
2019-02-14T11:22:12.242Z,1030.86
2019-02-14T11:24:04.234Z,1030.85
2019-02-14T11:25:04.199Z,1030.82
2019-02-14T11:26:56.809Z,1030.80
2019-02-14T11:27:56.730Z,1030.88
2019-02-14T11:29:48.494Z,1030.87
2019-02-14T11:30:48.415Z,1030.89
2019-02-14T11:32:40.244Z,1030.81
2019-02-14T11:33:40.207Z,1030.85
2019-02-14T11:35:32.043Z,1030.85
2019-02-14T11:36:31.965Z,1030.90
2019-02-14T11:38:23.779Z,1030.87
2019-02-14T11:39:23.710Z,1030.92
2019-02-14T11:41:15.496Z,1030.91
2019-02-14T11:42:15.410Z,1030.85
2019-02-14T11:44:07.203Z,1030.86
2019-02-14T11:45:07.093Z,1030.83
2019-02-14T11:46:58.924Z,1030.87
2019-02-14T11:47:58.859Z,1030.82
2019-02-14T11:49:50.648Z,1030.78
2019-02-14T11:50:50.559Z,1030.79
2019-02-14T11:52:42.318Z,1030.81
2019-02-14T11:53:42.318Z,1030.81
2019-02-14T11:55:34.069Z,1030.82
2019-02-14T11:56:33.996Z,1030.85
2019-02-14T11:58:26.747Z,1030.83
2019-02-14T11:59:26.684Z,1030.79
2019-02-14T12:01:19.523Z,1030.79
2019-02-14T12:02:19.441Z,1030.75
2019-02-14T12:04:11.225Z,1030.74
2019-02-14T12:05:11.138Z,1030.70
2019-02-14T12:07:02.890Z,1030.68
2019-02-14T12:08:02.826Z,1030.67
2019-02-14T12:09:54.590Z,1030.66
2019-02-14T12:10:54.498Z,1030.66
2019-02-14T12:12:46.556Z,1030.62
2019-02-14T12:13:46.503Z,1030.58
2019-02-14T12:15:38.269Z,1030.62
2019-02-14T12:16:38.187Z,1030.62
2019-02-14T12:18:29.944Z,1030.60
2019-02-14T12:19:29.880Z,1030.61
2019-02-14T12:21:21.650Z,1030.59
2019-02-14T12:22:21.579Z,1030.60
2019-02-14T12:24:13.321Z,1030.53
2019-02-14T12:25:13.260Z,1030.53
2019-02-14T12:27:05.058Z,1030.58
2019-02-14T12:28:04.938Z,1030.61
2019-02-14T12:29:57.717Z,1030.55
2019-02-14T12:30:57.643Z,1030.55
2019-02-14T12:32:49.412Z,1030.48
2019-02-14T12:33:49.335Z,1030.50
2019-02-14T12:35:41.103Z,1030.57
2019-02-14T12:36:41.024Z,1030.56
2019-02-14T12:38:32.840Z,1030.52
2019-02-14T12:39:32.768Z,1030.49
2019-02-14T12:41:24.628Z,1030.56
2019-02-14T12:42:24.560Z,1030.53
2019-02-14T12:44:16.850Z,1030.49
2019-02-14T12:45:21.631Z,1030.46
2019-02-14T12:47:08.500Z,1030.50
2019-02-14T12:48:08.450Z,1030.51
2019-02-14T12:50:00.339Z,1030.49
2019-02-14T12:51:00.116Z,1030.47
2019-02-14T12:52:52.917Z,1030.46
2019-02-14T12:53:52.844Z,1030.46
2019-02-14T12:55:44.923Z,1030.45
2019-02-14T12:56:44.841Z,1030.45
2019-02-14T12:58:36.599Z,1030.44
2019-02-14T12:59:36.539Z,1030.43
2019-02-14T13:01:28.358Z,1030.41
2019-02-14T13:02:28.263Z,1030.40
2019-02-14T13:04:21.074Z,1030.36
2019-02-14T13:05:21.004Z,1030.40
2019-02-14T13:07:12.906Z,1030.36
2019-02-14T13:08:12.821Z,1030.36
2019-02-14T13:10:04.824Z,1030.36
2019-02-14T13:11:04.764Z,1030.39
2019-02-14T13:12:57.498Z,1030.40
2019-02-14T13:13:57.425Z,1030.34
2019-02-14T13:15:50.269Z,1030.34
2019-02-14T13:16:50.231Z,1030.33
2019-02-14T13:18:42.965Z,1030.33
2019-02-14T13:19:42.933Z,1030.36
2019-02-14T13:21:35.738Z,1030.33
2019-02-14T13:22:35.633Z,1030.31
2019-02-14T13:24:28.486Z,1030.31
2019-02-14T13:25:28.405Z,1030.31
2019-02-14T13:27:21.238Z,1030.31
2019-02-14T13:28:21.100Z,1030.33
2019-02-14T13:30:13.899Z,1030.33
2019-02-14T13:31:13.804Z,1030.30
2019-02-14T13:33:05.710Z,1030.29
2019-02-14T13:34:05.657Z,1030.29
2019-02-14T13:35:57.514Z,1030.24
2019-02-14T13:37:01.575Z,1030.23
2019-02-14T13:38:49.222Z,1030.22
2019-02-14T13:39:49.130Z,1030.23
2019-02-14T13:41:41.031Z,1030.19
2019-02-14T13:42:40.880Z,1030.20
2019-02-14T13:44:32.781Z,1030.23
2019-02-14T13:45:32.731Z,1030.20
2019-02-14T13:47:24.515Z,1030.24
2019-02-14T13:48:24.384Z,1030.19
2019-02-14T13:50:16.222Z,1030.23
2019-02-14T13:51:16.103Z,1030.19
2019-02-14T13:53:07.951Z,1030.24
2019-02-14T13:54:07.842Z,1030.21
2019-02-14T13:55:59.734Z,1030.22
2019-02-14T13:56:59.533Z,1030.20
2019-02-14T13:58:51.293Z,1030.18
2019-02-14T13:59:51.226Z,1030.20
2019-02-14T14:01:43.014Z,1030.15
2019-02-14T14:02:42.934Z,1030.21
2019-02-14T14:04:34.697Z,1030.15
2019-02-14T14:05:34.626Z,1030.16
2019-02-14T14:07:26.484Z,1030.15
2019-02-14T14:08:26.456Z,1030.11
2019-02-14T14:10:18.146Z,1030.10
2019-02-14T14:11:18.089Z,1030.08
2019-02-14T14:13:10.044Z,1030.08
2019-02-14T14:14:09.809Z,1030.07
2019-02-14T14:16:01.799Z,1030.09
2019-02-14T14:17:01.555Z,1030.06
2019-02-14T14:18:53.315Z,1030.06
2019-02-14T14:19:53.229Z,1030.03
2019-02-14T14:21:45.191Z,1030.03
2019-02-14T14:22:45.238Z,1030.00
2019-02-14T14:24:36.862Z,1029.94
2019-02-14T14:25:36.775Z,1029.96
2019-02-14T14:27:28.616Z,1030.00
2019-02-14T14:28:28.522Z,1030.01
2019-02-14T14:30:20.283Z,1030.03
2019-02-14T14:31:20.219Z,1030.03
2019-02-14T14:33:11.995Z,1029.99
2019-02-14T14:34:11.953Z,1029.95
2019-02-14T14:36:03.796Z,1029.93
2019-02-14T14:37:03.719Z,1029.90
2019-02-14T14:38:55.528Z,1029.92
2019-02-14T14:39:55.442Z,1029.97
2019-02-14T14:41:47.441Z,1029.95
2019-02-14T14:42:47.152Z,1029.94
2019-02-14T14:44:39.008Z,1029.98
2019-02-14T14:45:38.897Z,1029.95
2019-02-14T14:47:30.708Z,1029.91
2019-02-14T14:48:30.654Z,1029.96
2019-02-14T14:50:22.435Z,1029.92
2019-02-14T14:51:22.374Z,1029.91
2019-02-14T14:53:14.157Z,1029.89
2019-02-14T14:54:14.077Z,1029.87
2019-02-14T14:56:05.862Z,1029.86
2019-02-14T14:57:05.760Z,1029.86
2019-02-14T14:58:57.583Z,1029.90
2019-02-14T14:59:57.463Z,1029.87
2019-02-14T15:01:49.232Z,1029.83
2019-02-14T15:02:49.226Z,1029.88
2019-02-14T15:04:40.913Z,1029.83
2019-02-14T15:05:40.830Z,1029.84
2019-02-14T15:07:32.675Z,1029.80
2019-02-14T15:08:32.571Z,1029.78
2019-02-14T15:10:24.413Z,1029.78
2019-02-14T15:11:24.310Z,1029.75
2019-02-14T15:13:16.091Z,1029.76
2019-02-14T15:14:16.024Z,1029.75
2019-02-14T15:16:07.886Z,1029.70
2019-02-14T15:17:07.817Z,1029.71
2019-02-14T15:18:59.681Z,1029.64
2019-02-14T15:19:59.460Z,1029.66
2019-02-14T15:21:51.314Z,1029.63
2019-02-14T15:22:51.264Z,1029.63
2019-02-14T15:24:43.004Z,1029.62
2019-02-14T15:25:42.927Z,1029.61
2019-02-14T15:27:35.051Z,1029.62
2019-02-14T15:28:34.962Z,1029.61
2019-02-14T15:30:26.843Z,1029.57
2019-02-14T15:31:26.872Z,1029.55
2019-02-14T15:33:18.599Z,1029.49
2019-02-14T15:34:18.489Z,1029.47
2019-02-14T15:36:10.355Z,1029.52
2019-02-14T15:37:10.333Z,1029.49
2019-02-14T15:39:03.216Z,1029.57
2019-02-14T15:40:09.263Z,1029.57
2019-02-14T15:41:56.228Z,1029.58
2019-02-14T15:42:55.693Z,1029.61
2019-02-14T15:44:47.620Z,1029.61
2019-02-14T15:45:47.532Z,1029.59
2019-02-14T15:47:39.345Z,1029.61
2019-02-14T15:48:39.258Z,1029.59
2019-02-14T15:50:32.174Z,1029.63
2019-02-14T15:51:31.021Z,1029.63
2019-02-14T15:53:22.906Z,1029.62
2019-02-14T15:54:22.766Z,1029.64
2019-02-14T15:56:14.818Z,1029.60
2019-02-14T15:57:16.489Z,1029.57
2019-02-14T15:59:06.672Z,1029.62
2019-02-14T16:00:07.989Z,1029.60
2019-02-14T16:01:58.490Z,1029.61
2019-02-14T16:02:58.600Z,1029.63
2019-02-14T16:04:50.846Z,1029.62
2019-02-14T16:05:50.052Z,1029.58
2019-02-14T16:07:41.882Z,1029.58
2019-02-14T16:08:41.770Z,1029.54
2019-02-14T16:10:33.533Z,1029.55
2019-02-14T16:11:33.987Z,1029.55
2019-02-14T16:13:25.618Z,1029.54
2019-02-14T16:14:25.285Z,1029.54
2019-02-14T16:16:20.138Z,1029.56
2019-02-14T16:17:18.047Z,1029.54
2019-02-14T16:19:10.948Z,1029.55
2019-02-14T16:20:09.741Z,1029.55
2019-02-14T16:22:01.492Z,1029.59
2019-02-14T16:23:01.428Z,1029.63
2019-02-14T16:24:54.501Z,1029.61
2019-02-14T16:25:54.262Z,1029.63
2019-02-14T16:27:48.121Z,1029.63
2019-02-14T16:28:46.018Z,1029.65
2019-02-14T16:30:37.796Z,1029.59
2019-02-14T16:31:37.704Z,1029.58
2019-02-14T16:33:29.534Z,1029.55
2019-02-14T16:34:29.480Z,1029.57
2019-02-14T16:36:22.726Z,1029.57
2019-02-14T16:37:21.196Z,1029.58
2019-02-14T16:39:12.957Z,1029.56
2019-02-14T16:40:12.878Z,1029.56
2019-02-14T16:42:04.699Z,1029.58
2019-02-14T16:43:04.842Z,1029.54
2019-02-14T16:44:56.576Z,1029.54
2019-02-14T16:45:56.546Z,1029.58
2019-02-14T16:47:48.893Z,1029.57
2019-02-14T16:48:48.765Z,1029.57
2019-02-14T16:50:41.609Z,1029.63
2019-02-14T16:51:41.449Z,1029.59
2019-02-14T16:53:33.348Z,1029.63
2019-02-14T16:54:35.707Z,1029.59
2019-02-14T16:56:25.129Z,1029.65
2019-02-14T16:57:24.939Z,1029.66
2019-02-14T16:59:16.777Z,1029.68
2019-02-14T17:00:16.661Z,1029.65
2019-02-14T17:02:08.528Z,1029.63
2019-02-14T17:03:08.455Z,1029.64
2019-02-14T17:05:00.388Z,1029.61
2019-02-14T17:06:00.167Z,1029.65
2019-02-14T17:07:52.062Z,1029.67
2019-02-14T17:08:51.999Z,1029.67
2019-02-14T17:10:43.804Z,1029.71
2019-02-14T17:11:43.803Z,1029.71
2019-02-14T17:13:35.529Z,1029.68
2019-02-14T17:14:35.467Z,1029.71
2019-02-14T17:16:27.200Z,1029.72
2019-02-14T17:17:28.053Z,1029.74
2019-02-14T17:19:18.990Z,1029.75
2019-02-14T17:20:18.880Z,1029.73
2019-02-14T17:22:10.802Z,1029.80